Portada
METAR-TAF:

METAR-TAF

Aeropuertos :

Varsovia, Polonia

Aeropuerto de Varsovia-Chopin

latitud: 52-10N, longitud: 020-58E, altitud: 106 m

Observación

El informe se hizo hace 31 minutos, a las 08:00 UTC
Viento 4 kt del oeste-noroeste, variando entre oeste-suroeste y norte-noroeste
Temperatura 22°C
Humedad 41%
Presión 1024 hPa
Visibilidad 10 km o más
sin nubes por debajo de 1500 m y sin presencia de cumulonimbus.

METAR: EPWA 280800Z 29004KT 240V330 CAVOK 22/08 Q1024 NOSIG

Hora: 10:31 (08:31 UTC)

Pronóstico

El informe se hizo hace 3 horas y 1 minutos, a las 05:30 UTC
Pronóstico válido del 28 a las 06 UTC al 29 a las 06 UTC
Viento 4 kt con dirección variable
Visibilidad 10 km o más
sin nubes por debajo de 1500 m y sin presencia de cumulonimbus.
Evolucionando progresivamente
del 28 a las 18 UTC al 28 a las 21 UTC
Viento 10 kt del sur-suroeste

TAF: EPWA 280530Z 2806/2906 VRB04KT CAVOK BECMG 2818/2821 20010KT

Observaciones y pronósticos meteorológicos de más de 4000 aeropuertos (mensajes METAR y TAF).

Los puntos amarillos y rojos representan las estaciones disponibles.

Ponga el ratón en el punto deseado para ver el nombre de la estación.

Haga clic para ver las observaciones y los pronósticos meteorológicos.

Para cambiar el mapa : haga clic en los botones verdes con una cruz de color negro para hacer un zoom, en el botón verde con un guión para alejar o en las flechas verdes para mapas adyacentes.


METAR-TAF: